Star Vega — 3EVB3 — position and weather

sailwx.info

Track history (hours):
 
Tides and Currents Weather Stations Pressure Air Temp Water Temp Dewpoint Dewpoint Depression Visibility Wind Speed Wind Dir Waves Ship Positions

Star Vega

Last reported at 2015-Jan-21 08:31 UTC. Time now 2015-Jan-30 21:37 UTC.
Position N 41°20' E 029°13'.
Warning: this ship's position is 9 days out of date.

Length 189 m; draft 6 m.

Type: Cargo ship. MMSI: 354143000.

Date/timePositionNaut miles runAvg speedWind from/ knotsBaromVisibWave heightAir tempDewpointWater temp
2015-Jan-21 08:31N 41°20' E 029°13'173 3.9
2015-Jan-19 12:24N 39°52' E 025°56'0 0.0
2015-Jan-19 10:18N 39°52' E 025°56'0 0.0
2015-Jan-19 08:28N 39°52' E 025°55'16410.1
2015-Jan-18 16:15N 37°37' E 023°57'810.8
2015-Jan-18 15:33N 37°39' E 023°48'9 9.4
2015-Jan-18 14:33N 37°45' E 023°39'9 9.2
2015-Jan-18 13:33N 37°52' E 023°32'1 1.0
2015-Jan-18 12:33N 37°53' E 023°31'0 0.1
2015-Jan-18 11:33N 37°53' E 023°31'0 0.0
2015-Jan-18 10:33N 37°53' E 023°31'0 0.0
2015-Jan-18 09:33N 37°53' E 023°31'0 0.0
2015-Jan-18 08:33N 37°53' E 023°31'0 0.0
2015-Jan-18 07:33N 37°53' E 023°31'0 0.0
2015-Jan-18 06:33N 37°53' E 023°31'0 0.0
2015-Jan-18 05:33N 37°53' E 023°31'0 0.0
2015-Jan-18 04:33N 37°53' E 023°31'0 0.0
2015-Jan-18 03:33N 37°53' E 023°31'0 0.0
2015-Jan-18 02:24N 37°53' E 023°31'0 0.0
2015-Jan-18 01:33N 37°53' E 023°31'0 0.0
2015-Jan-18 00:33N 37°53' E 023°31'0 0.0
2015-Jan-17 23:33N 37°53' E 023°31'0 0.0
2015-Jan-17 22:33N 37°53' E 023°31'0 0.0
2015-Jan-17 21:33N 37°53' E 023°31'0 0.1
2015-Jan-17 20:33N 37°52' E 023°31'0 0.0
2015-Jan-17 19:33N 37°53' E 023°31'0 0.1
2015-Jan-17 18:33N 37°53' E 023°31'0 0.1
2015-Jan-17 17:33N 37°53' E 023°31'0 0.0
2015-Jan-17 16:33N 37°53' E 023°31'0 0.0
2015-Jan-17 15:33N 37°53' E 023°31'0 0.0
2015-Jan-17 14:33N 37°53' E 023°31'0 0.0
2015-Jan-17 13:33N 37°53' E 023°31'0 0.0
2015-Jan-17 12:33N 37°53' E 023°31'0 0.1
2015-Jan-17 11:33N 37°53' E 023°31'0 0.1
2015-Jan-17 10:33N 37°53' E 023°31'0 0.1
2015-Jan-17 09:33N 37°53' E 023°31'0 0.1
2015-Jan-17 08:33N 37°53' E 023°31'0 0.0
2015-Jan-17 07:33N 37°53' E 023°31'0 0.0
2015-Jan-17 06:33N 37°53' E 023°31'0 0.0
2015-Jan-17 05:33N 37°53' E 023°31'0 0.0
2015-Jan-17 04:33N 37°53' E 023°31'0 0.0
2015-Jan-17 03:33N 37°53' E 023°31'0 0.0
2015-Jan-17 02:33N 37°53' E 023°31'0 0.0
2015-Jan-17 01:33N 37°53' E 023°31'0 0.0
2015-Jan-17 00:33N 37°53' E 023°31'0 0.1
2015-Jan-16 23:33N 37°52' E 023°31'0 0.0
2015-Jan-16 22:33N 37°52' E 023°31'0 0.1
2015-Jan-16 21:33N 37°52' E 023°31'0 0.1
2015-Jan-16 20:33N 37°53' E 023°31'0 0.0
2015-Jan-16 19:33N 37°53' E 023°31'0 0.0
2015-Jan-16 18:33N 37°53' E 023°31'0 0.0
2015-Jan-16 17:33N 37°53' E 023°31'0 0.0
2015-Jan-16 16:33N 37°53' E 023°31'0 0.0
2015-Jan-16 15:33N 37°52' E 023°31'0 0.0
2015-Jan-16 14:33N 37°52' E 023°31'0 0.0
2015-Jan-16 13:33N 37°52' E 023°31'0 0.0
2015-Jan-16 12:33N 37°53' E 023°31'0 0.0
2015-Jan-16 11:33N 37°52' E 023°31'0 0.0
2015-Jan-16 10:33N 37°52' E 023°31'0 0.0
2015-Jan-16 09:33N 37°52' E 023°31'0 0.0
2015-Jan-16 08:31N 37°53' E 023°31'0 0.1
2015-Jan-16 07:31N 37°52' E 023°31'0 0.1
2015-Jan-16 06:31N 37°52' E 023°31'0 0.1
2015-Jan-16 05:31N 37°52' E 023°31'0 0.0
2015-Jan-16 04:31N 37°52' E 023°31'0 0.0
2015-Jan-16 03:31N 37°52' E 023°31'0 0.0
2015-Jan-16 02:31N 37°52' E 023°31'0 0.0
2015-Jan-16 01:31N 37°52' E 023°31'0 0.0
2015-Jan-16 00:31N 37°52' E 023°31'0 0.0
2015-Jan-15 23:31N 37°52' E 023°31'0 0.0
2015-Jan-15 22:31N 37°53' E 023°31'0 0.0
2015-Jan-15 21:31N 37°52' E 023°31'0 0.0
2015-Jan-15 20:31N 37°53' E 023°31'0 0.0
2015-Jan-15 19:31N 37°53' E 023°31'0 0.0
2015-Jan-15 18:31N 37°53' E 023°31'0 0.0
2015-Jan-15 17:31N 37°52' E 023°31'0 0.0
2015-Jan-15 16:31N 37°53' E 023°31'0 0.0
2015-Jan-15 15:31N 37°52' E 023°31'0 0.0
2015-Jan-15 14:31N 37°52' E 023°31'0 0.1
2015-Jan-15 13:31N 37°52' E 023°31'0 0.1
2015-Jan-15 12:31N 37°52' E 023°31'0 0.1
2015-Jan-15 11:31N 37°52' E 023°31'0 0.1
2015-Jan-15 10:32N 37°53' E 023°31'0 0.0
2015-Jan-15 09:31N 37°53' E 023°31'0 0.0
2015-Jan-15 08:31N 37°53' E 023°31'0 0.0
2015-Jan-15 07:31N 37°53' E 023°31'0 0.0
2015-Jan-15 06:31N 37°53' E 023°31'0 0.0
2015-Jan-15 05:31N 37°53' E 023°31'0 0.0
2015-Jan-15 04:31N 37°53' E 023°31'0 0.1
2015-Jan-15 03:31N 37°53' E 023°31'0 0.0
2015-Jan-15 02:31N 37°53' E 023°31'0 0.0
2015-Jan-15 01:31N 37°53' E 023°31'0 0.1
2015-Jan-15 00:31N 37°53' E 023°31'0 0.0
2015-Jan-14 23:31N 37°53' E 023°31'0 0.0
2015-Jan-14 22:31N 37°53' E 023°31'0 0.0
2015-Jan-14 21:31N 37°53' E 023°31'0 0.2
2015-Jan-14 20:31N 37°53' E 023°31'0 0.0
2015-Jan-14 19:31N 37°53' E 023°31'0 0.2
2015-Jan-14 18:31N 37°53' E 023°31'0 0.0
2015-Jan-14 17:31N 37°53' E 023°31'0 0.1
2015-Jan-14 16:31N 37°53' E 023°31'0 0.0
2015-Jan-14 15:31N 37°53' E 023°31'0 0.1
2015-Jan-14 14:31N 37°53' E 023°31'0 0.0
2015-Jan-14 13:31N 37°53' E 023°31'0 0.0
2015-Jan-14 12:31N 37°53' E 023°31'0 0.1
2015-Jan-14 11:31N 37°53' E 023°31'0 0.1
2015-Jan-14 10:31N 37°53' E 023°31'0 0.1
2015-Jan-14 09:31N 37°53' E 023°31'0 0.0
2015-Jan-14 08:31N 37°53' E 023°31'0 0.1
2015-Jan-14 07:31N 37°53' E 023°31'0 0.0
2015-Jan-14 06:31N 37°53' E 023°31'0 0.0
2015-Jan-14 05:31N 37°52' E 023°31'0 0.0
2015-Jan-14 04:31N 37°52' E 023°31'0 0.0
2015-Jan-14 03:28N 37°52' E 023°31'0 0.1
2015-Jan-14 02:31N 37°52' E 023°31'0 0.0
2015-Jan-14 01:28N 37°52' E 023°31'0 0.1
2015-Jan-14 00:31N 37°52' E 023°31'0 0.0
2015-Jan-13 23:31N 37°52' E 023°31'0 0.0
2015-Jan-13 22:31N 37°52' E 023°31'0 0.0
2015-Jan-13 21:31N 37°52' E 023°31'0 0.1
2015-Jan-13 20:31N 37°52' E 023°31'0 0.0
2015-Jan-13 19:31N 37°52' E 023°31'0 0.1
2015-Jan-13 18:31N 37°52' E 023°31'0 0.0
2015-Jan-13 17:31N 37°52' E 023°31'0 0.0
2015-Jan-13 16:31N 37°52' E 023°31'0 0.0
2015-Jan-13 15:31N 37°52' E 023°31'0 0.1
2015-Jan-13 14:31N 37°52' E 023°31'0 0.1
2015-Jan-13 13:31N 37°52' E 023°31'0 0.0
2015-Jan-13 12:31N 37°52' E 023°31'0 0.0
2015-Jan-13 11:31N 37°52' E 023°31'0 0.0
2015-Jan-13 10:31N 37°53' E 023°31'0 0.0
2015-Jan-13 09:31N 37°53' E 023°31'0 0.0
2015-Jan-13 08:31N 37°53' E 023°31'0 0.0
2015-Jan-13 07:31N 37°53' E 023°31'0 0.0
2015-Jan-13 06:31N 37°53' E 023°31'0 0.0
2015-Jan-13 05:31N 37°53' E 023°31'0 0.1
2015-Jan-13 04:33N 37°53' E 023°31'0 0.0
2015-Jan-13 03:31N 37°53' E 023°31'0 0.0
2015-Jan-13 02:31N 37°53' E 023°31'0 0.0
2015-Jan-13 01:31N 37°53' E 023°31'0 0.1
2015-Jan-13 00:31N 37°53' E 023°31'0 0.1
2015-Jan-12 23:31N 37°53' E 023°31'0 0.1
2015-Jan-12 22:31N 37°53' E 023°31'0 0.0
2015-Jan-12 21:31N 37°53' E 023°31'0 0.0
2015-Jan-12 20:31N 37°53' E 023°31'0 0.1
2015-Jan-12 19:31N 37°53' E 023°31'0 0.1
2015-Jan-12 18:31N 37°53' E 023°31'0 0.1
2015-Jan-12 17:31N 37°53' E 023°31'0 0.1
2015-Jan-12 16:31N 37°53' E 023°31'0 0.1
2015-Jan-12 15:31N 37°53' E 023°31'0 0.4
2015-Jan-12 14:31N 37°53' E 023°31'0 0.3
2015-Jan-12 13:31N 37°53' E 023°31'1 1.2
2015-Jan-12 12:31N 37°52' E 023°31'0 0.2
2015-Jan-12 11:31N 37°52' E 023°31'0 0.1
2015-Jan-12 10:31N 37°52' E 023°31'0 0.1
2015-Jan-12 09:31N 37°52' E 023°31'0 0.2
2015-Jan-12 08:31N 37°52' E 023°31'0 0.2
2015-Jan-12 07:31N 37°53' E 023°31'0 0.1
2015-Jan-12 06:31N 37°53' E 023°31'0 0.1
2015-Jan-12 05:31N 37°53' E 023°31'0 0.1
2015-Jan-12 04:31N 37°53' E 023°31'0 0.0
2015-Jan-12 03:31N 37°53' E 023°31'0 0.1
2015-Jan-12 02:31N 37°53' E 023°31'0 0.0
2015-Jan-12 01:31N 37°53' E 023°31'0 0.0
2015-Jan-12 00:31N 37°53' E 023°31'0 0.0
2015-Jan-11 23:31N 37°53' E 023°31'0 0.0
2015-Jan-11 22:31N 37°53' E 023°31'0 0.0
2015-Jan-11 21:31N 37°53' E 023°31'0 0.1
2015-Jan-11 20:31N 37°52' E 023°31'0 0.0
2015-Jan-11 19:31N 37°52' E 023°31'0 0.2
2015-Jan-11 18:31N 37°52' E 023°31'0 0.1
2015-Jan-11 17:31N 37°52' E 023°31'0 0.0
2015-Jan-11 16:25N 37°52' E 023°31'0 0.0
2015-Jan-11 15:31N 37°52' E 023°31'0 0.1
2015-Jan-11 14:31N 37°53' E 023°31'0 0.0
2015-Jan-11 13:31N 37°53' E 023°31'0 0.0
2015-Jan-11 12:31N 37°53' E 023°31'0 0.2
2015-Jan-11 11:31N 37°52' E 023°31'0 0.1
2015-Jan-11 10:31N 37°52' E 023°31'0 0.0
2015-Jan-11 09:31N 37°52' E 023°31'0 0.0
2015-Jan-11 08:31N 37°52' E 023°31'  
Track history (hours):
 
Tides and Currents Weather Stations Pressure Air Temp Water Temp Dewpoint Dewpoint Depression Visibility Wind Speed Wind Dir Waves Ship Positions

Star Vega

Last reported at 2015-Jan-21 08:31 UTC. Time now 2015-Jan-30 21:37 UTC.
Position N 41°20' E 029°13'.
Warning: this ship's position is 9 days out of date.

Length 189 m; draft 6 m.

Type: Cargo ship. MMSI: 354143000.

Date/timePositionNaut miles runAvg speedWind from/ knotsBaromVisibWave heightAir tempDewpointWater temp
2015-Jan-21 08:31N 41°20' E 029°13'173 3.9
2015-Jan-19 12:24N 39°52' E 025°56'0 0.0
2015-Jan-19 10:18N 39°52' E 025°56'0 0.0
2015-Jan-19 08:28N 39°52' E 025°55'16410.1
2015-Jan-18 16:15N 37°37' E 023°57'810.8
2015-Jan-18 15:33N 37°39' E 023°48'9 9.4
2015-Jan-18 14:33N 37°45' E 023°39'9 9.2
2015-Jan-18 13:33N 37°52' E 023°32'1 1.0
2015-Jan-18 12:33N 37°53' E 023°31'0 0.1
2015-Jan-18 11:33N 37°53' E 023°31'0 0.0
2015-Jan-18 10:33N 37°53' E 023°31'0 0.0
2015-Jan-18 09:33N 37°53' E 023°31'0 0.0
2015-Jan-18 08:33N 37°53' E 023°31'0 0.0
2015-Jan-18 07:33N 37°53' E 023°31'0 0.0
2015-Jan-18 06:33N 37°53' E 023°31'0 0.0
2015-Jan-18 05:33N 37°53' E 023°31'0 0.0
2015-Jan-18 04:33N 37°53' E 023°31'0 0.0
2015-Jan-18 03:33N 37°53' E 023°31'0 0.0
2015-Jan-18 02:24N 37°53' E 023°31'0 0.0
2015-Jan-18 01:33N 37°53' E 023°31'0 0.0
2015-Jan-18 00:33N 37°53' E 023°31'0 0.0
2015-Jan-17 23:33N 37°53' E 023°31'0 0.0
2015-Jan-17 22:33N 37°53' E 023°31'0 0.0
2015-Jan-17 21:33N 37°53' E 023°31'0 0.1
2015-Jan-17 20:33N 37°52' E 023°31'0 0.0
2015-Jan-17 19:33N 37°53' E 023°31'0 0.1
2015-Jan-17 18:33N 37°53' E 023°31'0 0.1
2015-Jan-17 17:33N 37°53' E 023°31'0 0.0
2015-Jan-17 16:33N 37°53' E 023°31'0 0.0
2015-Jan-17 15:33N 37°53' E 023°31'0 0.0
2015-Jan-17 14:33N 37°53' E 023°31'0 0.0
2015-Jan-17 13:33N 37°53' E 023°31'0 0.0
2015-Jan-17 12:33N 37°53' E 023°31'0 0.1
2015-Jan-17 11:33N 37°53' E 023°31'0 0.1
2015-Jan-17 10:33N 37°53' E 023°31'0 0.1
2015-Jan-17 09:33N 37°53' E 023°31'0 0.1
2015-Jan-17 08:33N 37°53' E 023°31'0 0.0
2015-Jan-17 07:33N 37°53' E 023°31'0 0.0
2015-Jan-17 06:33N 37°53' E 023°31'0 0.0
2015-Jan-17 05:33N 37°53' E 023°31'0 0.0
2015-Jan-17 04:33N 37°53' E 023°31'0 0.0
2015-Jan-17 03:33N 37°53' E 023°31'0 0.0
2015-Jan-17 02:33N 37°53' E 023°31'0 0.0
2015-Jan-17 01:33N 37°53' E 023°31'0 0.0
2015-Jan-17 00:33N 37°53' E 023°31'0 0.1
2015-Jan-16 23:33N 37°52' E 023°31'0 0.0
2015-Jan-16 22:33N 37°52' E 023°31'0 0.1
2015-Jan-16 21:33N 37°52' E 023°31'0 0.1
2015-Jan-16 20:33N 37°53' E 023°31'0 0.0
2015-Jan-16 19:33N 37°53' E 023°31'0 0.0
2015-Jan-16 18:33N 37°53' E 023°31'0 0.0
2015-Jan-16 17:33N 37°53' E 023°31'0 0.0
2015-Jan-16 16:33N 37°53' E 023°31'0 0.0
2015-Jan-16 15:33N 37°52' E 023°31'0 0.0
2015-Jan-16 14:33N 37°52' E 023°31'0 0.0
2015-Jan-16 13:33N 37°52' E 023°31'0 0.0
2015-Jan-16 12:33N 37°53' E 023°31'0 0.0
2015-Jan-16 11:33N 37°52' E 023°31'0 0.0
2015-Jan-16 10:33N 37°52' E 023°31'0 0.0
2015-Jan-16 09:33N 37°52' E 023°31'0 0.0
2015-Jan-16 08:31N 37°53' E 023°31'0 0.1
2015-Jan-16 07:31N 37°52' E 023°31'0 0.1
2015-Jan-16 06:31N 37°52' E 023°31'0 0.1
2015-Jan-16 05:31N 37°52' E 023°31'0 0.0
2015-Jan-16 04:31N 37°52' E 023°31'0 0.0
2015-Jan-16 03:31N 37°52' E 023°31'0 0.0
2015-Jan-16 02:31N 37°52' E 023°31'0 0.0
2015-Jan-16 01:31N 37°52' E 023°31'0 0.0
2015-Jan-16 00:31N 37°52' E 023°31'0 0.0
2015-Jan-15 23:31N 37°52' E 023°31'0 0.0
2015-Jan-15 22:31N 37°53' E 023°31'0 0.0
2015-Jan-15 21:31N 37°52' E 023°31'0 0.0
2015-Jan-15 20:31N 37°53' E 023°31'0 0.0
2015-Jan-15 19:31N 37°53' E 023°31'0 0.0
2015-Jan-15 18:31N 37°53' E 023°31'0 0.0
2015-Jan-15 17:31N 37°52' E 023°31'0 0.0
2015-Jan-15 16:31N 37°53' E 023°31'0 0.0
2015-Jan-15 15:31N 37°52' E 023°31'0 0.0
2015-Jan-15 14:31N 37°52' E 023°31'0 0.1
2015-Jan-15 13:31N 37°52' E 023°31'0 0.1
2015-Jan-15 12:31N 37°52' E 023°31'0 0.1
2015-Jan-15 11:31N 37°52' E 023°31'0 0.1
2015-Jan-15 10:32N 37°53' E 023°31'0 0.0
2015-Jan-15 09:31N 37°53' E 023°31'0 0.0
2015-Jan-15 08:31N 37°53' E 023°31'0 0.0
2015-Jan-15 07:31N 37°53' E 023°31'0 0.0
2015-Jan-15 06:31N 37°53' E 023°31'0 0.0
2015-Jan-15 05:31N 37°53' E 023°31'0 0.0
2015-Jan-15 04:31N 37°53' E 023°31'0 0.1
2015-Jan-15 03:31N 37°53' E 023°31'0 0.0
2015-Jan-15 02:31N 37°53' E 023°31'0 0.0
2015-Jan-15 01:31N 37°53' E 023°31'0 0.1
2015-Jan-15 00:31N 37°53' E 023°31'0 0.0
2015-Jan-14 23:31N 37°53' E 023°31'0 0.0
2015-Jan-14 22:31N 37°53' E 023°31'0 0.0
2015-Jan-14 21:31N 37°53' E 023°31'0 0.2
2015-Jan-14 20:31N 37°53' E 023°31'0 0.0
2015-Jan-14 19:31N 37°53' E 023°31'0 0.2
2015-Jan-14 18:31N 37°53' E 023°31'0 0.0
2015-Jan-14 17:31N 37°53' E 023°31'0 0.1
2015-Jan-14 16:31N 37°53' E 023°31'0 0.0
2015-Jan-14 15:31N 37°53' E 023°31'0 0.1
2015-Jan-14 14:31N 37°53' E 023°31'0 0.0
2015-Jan-14 13:31N 37°53' E 023°31'0 0.0
2015-Jan-14 12:31N 37°53' E 023°31'0 0.1
2015-Jan-14 11:31N 37°53' E 023°31'0 0.1
2015-Jan-14 10:31N 37°53' E 023°31'0 0.1
2015-Jan-14 09:31N 37°53' E 023°31'0 0.0
2015-Jan-14 08:31N 37°53' E 023°31'0 0.1
2015-Jan-14 07:31N 37°53' E 023°31'0 0.0
2015-Jan-14 06:31N 37°53' E 023°31'0 0.0
2015-Jan-14 05:31N 37°52' E 023°31'0 0.0
2015-Jan-14 04:31N 37°52' E 023°31'0 0.0
2015-Jan-14 03:28N 37°52' E 023°31'0 0.1
2015-Jan-14 02:31N 37°52' E 023°31'0 0.0
2015-Jan-14 01:28N 37°52' E 023°31'0 0.1
2015-Jan-14 00:31N 37°52' E 023°31'0 0.0
2015-Jan-13 23:31N 37°52' E 023°31'0 0.0
2015-Jan-13 22:31N 37°52' E 023°31'0 0.0
2015-Jan-13 21:31N 37°52' E 023°31'0 0.1
2015-Jan-13 20:31N 37°52' E 023°31'0 0.0
2015-Jan-13 19:31N 37°52' E 023°31'0 0.1
2015-Jan-13 18:31N 37°52' E 023°31'0 0.0
2015-Jan-13 17:31N 37°52' E 023°31'0 0.0
2015-Jan-13 16:31N 37°52' E 023°31'0 0.0
2015-Jan-13 15:31N 37°52' E 023°31'0 0.1
2015-Jan-13 14:31N 37°52' E 023°31'0 0.1
2015-Jan-13 13:31N 37°52' E 023°31'0 0.0
2015-Jan-13 12:31N 37°52' E 023°31'0 0.0
2015-Jan-13 11:31N 37°52' E 023°31'0 0.0
2015-Jan-13 10:31N 37°53' E 023°31'0 0.0
2015-Jan-13 09:31N 37°53' E 023°31'0 0.0
2015-Jan-13 08:31N 37°53' E 023°31'0 0.0
2015-Jan-13 07:31N 37°53' E 023°31'0 0.0
2015-Jan-13 06:31N 37°53' E 023°31'0 0.0
2015-Jan-13 05:31N 37°53' E 023°31'0 0.1
2015-Jan-13 04:33N 37°53' E 023°31'0 0.0
2015-Jan-13 03:31N 37°53' E 023°31'0 0.0
2015-Jan-13 02:31N 37°53' E 023°31'0 0.0
2015-Jan-13 01:31N 37°53' E 023°31'0 0.1
2015-Jan-13 00:31N 37°53' E 023°31'0 0.1
2015-Jan-12 23:31N 37°53' E 023°31'0 0.1
2015-Jan-12 22:31N 37°53' E 023°31'0 0.0
2015-Jan-12 21:31N 37°53' E 023°31'0 0.0
2015-Jan-12 20:31N 37°53' E 023°31'0 0.1
2015-Jan-12 19:31N 37°53' E 023°31'0 0.1
2015-Jan-12 18:31N 37°53' E 023°31'0 0.1
2015-Jan-12 17:31N 37°53' E 023°31'0 0.1
2015-Jan-12 16:31N 37°53' E 023°31'0 0.1
2015-Jan-12 15:31N 37°53' E 023°31'0 0.4
2015-Jan-12 14:31N 37°53' E 023°31'0 0.3
2015-Jan-12 13:31N 37°53' E 023°31'1 1.2
2015-Jan-12 12:31N 37°52' E 023°31'0 0.2
2015-Jan-12 11:31N 37°52' E 023°31'0 0.1
2015-Jan-12 10:31N 37°52' E 023°31'0 0.1
2015-Jan-12 09:31N 37°52' E 023°31'0 0.2
2015-Jan-12 08:31N 37°52' E 023°31'0 0.2
2015-Jan-12 07:31N 37°53' E 023°31'0 0.1
2015-Jan-12 06:31N 37°53' E 023°31'0 0.1
2015-Jan-12 05:31N 37°53' E 023°31'0 0.1
2015-Jan-12 04:31N 37°53' E 023°31'0 0.0
2015-Jan-12 03:31N 37°53' E 023°31'0 0.1
2015-Jan-12 02:31N 37°53' E 023°31'0 0.0
2015-Jan-12 01:31N 37°53' E 023°31'0 0.0
2015-Jan-12 00:31N 37°53' E 023°31'0 0.0
2015-Jan-11 23:31N 37°53' E 023°31'0 0.0
2015-Jan-11 22:31N 37°53' E 023°31'0 0.0
2015-Jan-11 21:31N 37°53' E 023°31'0 0.1
2015-Jan-11 20:31N 37°52' E 023°31'0 0.0
2015-Jan-11 19:31N 37°52' E 023°31'0 0.2
2015-Jan-11 18:31N 37°52' E 023°31'0 0.1
2015-Jan-11 17:31N 37°52' E 023°31'0 0.0
2015-Jan-11 16:25N 37°52' E 023°31'0 0.0
2015-Jan-11 15:31N 37°52' E 023°31'0 0.1
2015-Jan-11 14:31N 37°53' E 023°31'0 0.0
2015-Jan-11 13:31N 37°53' E 023°31'0 0.0
2015-Jan-11 12:31N 37°53' E 023°31'0 0.2
2015-Jan-11 11:31N 37°52' E 023°31'0 0.1
2015-Jan-11 10:31N 37°52' E 023°31'0 0.0
2015-Jan-11 09:31N 37°52' E 023°31'0 0.0
2015-Jan-11 08:31N 37°52' E 023°31'  

Dump ship's entire track history